x

Pt Arena - 19nm North Of Point Arena, Ca (46014) Weather Station

4:50pm - Tue 23rd Sep 2014 All times are PDT. -7 hours from GMT.

  • Wind
    13mph, 16mph gusts
  • Sea Temp 63°f
  • Air Temp 64°f
  • Sea Pressure 1014.1mb
  • Pt Arena - 19nm North Of Point Arena, Ca
  • Pt Arena - 19nm North Of Point Arena, Ca

More Historic Weather Station data

Upgrade to MSW Pro to gain access to the past 30 days of data for over 8000 Wavebouys and Weather Stations around the globe.

Join Pro

Comparision Forecast

View Surf forecast
   
Tue 09/23 4:50pm  -   -   -  13 16 mph 1014.1mb 63f 64f
3:50pm 3.5ft 11s 6s 16 18 mph 1014.1mb 63f 64f
2:50pm 3.5ft 9s 6s 13 16 mph 1014.5mb 63f 64f
1:50pm 3.5ft 8s 6s 16 18 mph 1014.9mb 63f 64f
12:50pm 4ft 9s 6s 13 16 mph 1015.3mb 63f 64f
11:50am 3.5ft 10s 6s 13
mph
1015.6mb 63f 64f
10:50am 3.5ft 10s 7s 11 13 mph 1015.8mb 63f 64f
9:50am 4ft 10s 8s 11 13 mph 1015.7mb 63f 63f
8:50am 3.5ft 10s 7s 11 13 mph 1015.4mb 63f 63f
7:50am  -   -   -  11
mph
1015.1mb 63f 63f
6:50am  -   -   -  9 11 mph 1014.8mb 63f 62f
5:50am  -   -   -  9 11 mph 1014.7mb 63f 61f
4:50am  -   -   -  11
mph
1014.5mb 64f 61f
2:50am 3.5ft 10s 9s 11
mph
1014.9mb 64f 61f
1:50am 4ft 9s 9s 7
mph
1015.2mb 64f 62f
12:50am 3.5ft 9s 8s 7 9 mph 1015mb 64f 62f
Mon 09/22 11:50pm 4ft 9s 9s 2 4 mph 1015.7mb 64f 62f
10:50pm 3.5ft 11s 9s 4
mph
1015.6mb 64f 63f
9:50pm 3.5ft 10s 9s 4 7 mph 1015.5mb 64f 63f
8:50pm 3.5ft 10s 9s  -  mph 1015.9mb 64f 63f
7:50pm 3.5ft 11s 9s  -  mph 1015.5mb 65f 63f
6:50pm 3.5ft 10s 9s  -  mph 1015.5mb 64f 65f
5:50pm 3.5ft 11s 9s  -  mph 1015.5mb 64f 65f
4:50pm 3.5ft 11s 9s  -  mph 1016.1mb 64f 66f
3:50pm 3.5ft 11s 9s 4 7 mph 1016.4mb 65f 65f
2:50pm 3.5ft 11s 9s  -  2 mph 1016.7mb 66f 65f
1:50pm 3.5ft 10s 8s  -  2 mph 1017.3mb 64f 65f
12:50pm 3.5ft 9s 9s  -  2 mph 1017.8mb 63f 65f
11:50am 3.5ft 11s 9s  -  mph 1017.7mb 63f 66f
10:50am 3.5ft 11s 8s  -  2 mph 1017.3mb 63f 64f
9:50am 3.5ft 11s 9s 4
mph
1017.3mb 62f 63f
8:50am 4ft 11s 9s 2 4 mph 1017.4mb 62f 62f
7:50am 4ft 10s 9s  -  2 mph 1017.3mb 62f 62f
6:50am 4ft 11s 9s  -  2 mph 1016.8mb 62f 62f
5:50am 3.5ft 10s 8s  -  mph 1016.7mb 62f 62f
4:50am 4.5ft 11s 9s 2 4 mph 1016.3mb 62f 62f
3:50am 4.5ft 11s 9s  -  mph 1016.5mb 62f 63f
2:50am 4ft 11s 8s  -  mph 1016.9mb 62f 62f
1:50am 4ft 12s 9s 2
mph
1016.8mb 62f 63f
12:50am 4.5ft 11s 8s  -  4 mph 1016.5mb 62f 63f
Sun 09/21 11:50pm 4.5ft 12s 8s  -  mph 1016.7mb 62f 63f
10:50pm 4.5ft 11s 8s 2 4 mph 1016.9mb 62f 63f
9:50pm 4ft 11s 8s  -  2 mph 1016.9mb 62f 63f
8:50pm 4.5ft 11s 9s  -  2 mph 1016.9mb 63f 63f
7:50pm 4ft 13s 8s 2
mph
1016.5mb 62f 63f
6:50pm 4.5ft 13s 9s  -  2 mph 1016.3mb 63f 63f
5:50pm 5ft 11s 9s  -  mph 1016.2mb 63f 63f
4:50pm  -   -   -   -  mph - - 63f
2:50pm 4.5ft 12s 9s 9
mph
1016.4mb 62f 62f
1:50pm 4.5ft 12s 9s 4 7 mph 1016.3mb 62f 63f
12:50pm 4.5ft 11s 9s 7 9 mph 1016.6mb 62f 63f
11:50am  -   -   -  7 9 mph 1016.7mb 62f 62f
10:50am 5ft 11s 8s 7 9 mph 1016.5mb 62f 62f
8:50am 5ft 11s 8s 9 11 mph 1015.6mb 62f 61f
7:50am 5ft 11s 8s 7 9 mph 1015.1mb 62f 61f
6:50am 5.5ft 11s 8s 9 11 mph 1014.7mb 62f 62f
5:50am 6ft 12s 9s 9 11 mph 1014.4mb 62f 62f
4:50am 6ft 12s 9s 4 7 mph 1014.3mb 61f 62f
3:50am 6ft 12s 9s 9 11 mph 1014.3mb 61f 62f
2:50am 5.5ft 12s 8s 11 13 mph 1014.7mb 61f 62f
1:50am 6.5ft 13s 9s 9 11 mph 1014.5mb 62f 62f
12:50am  -   -   -  11 13 mph 1014.5mb 62f 62f
Sat 09/20 11:50pm 7ft 13s 9s 13 18 mph 1014.5mb 62f 62f
10:50pm 6ft 13s 9s 13 18 mph 1014.2mb 62f 62f
9:50pm 6ft 13s 9s 11 13 mph 1013.8mb 62f 62f
8:50pm 7ft 12s 9s 9 11 mph 1013.4mb 63f 62f
7:50pm 6ft 12s 8s 7 9 mph 1013.2mb 63f 63f
6:50pm 7ft 13s 9s 7 9 mph 1013.1mb 63f 62f
5:50pm 6ft 13s 8s 9 11 mph 1013.2mb 63f 62f
4:50pm  -   -   -  11 13 mph 1013.4mb 63f 62f
3:50pm 5.5ft 15s 7s 13 18 mph 1013.5mb 63f 62f
2:50pm  -   -   -  13 16 mph 1013.4mb 62f 62f
1:50pm 5ft 14s 6s 16 20 mph 1013.8mb 62f 62f
12:50pm  -   -   -  18 20 mph 1013.7mb 62f 62f
11:50am 5ft 8s 6s 18 22 mph 1013.7mb 62f 61f
10:50am 5ft 8s 6s 18 20 mph 1013.4mb 62f 61f
8:50am 5ft 8s 6s 18 20 mph 1012.7mb 62f 61f
7:50am  -   -   -  18 22 mph 1012.2mb 62f 61f
6:50am 5ft 15s 6s 18 22 mph 1011.5mb 62f 61f
5:50am 4.5ft 14s 6s 18 20 mph 1011.2mb 62f 60f
4:50am  -   -   -  16 20 mph 1011mb 62f 60f
3:50am 4.5ft 14s 6s 16 18 mph 1011.1mb 62f 60f
2:50am 4.5ft 15s 6s 13 16 mph 1011.4mb 62f 60f
1:50am 5ft 15s 7s 11 16 mph 1011.6mb 62f 60f